createdAt,value
2023-12-30T00:00:33.335Z,36.07
2023-12-30T00:03:02.951Z,34.40
2023-12-30T00:05:31.135Z,34.63
2023-12-30T00:07:59.111Z,37.47
2023-12-30T00:10:27.157Z,39.00
2023-12-30T00:12:55.163Z,39.67
2023-12-30T00:15:23.140Z,40.27
2023-12-30T00:17:51.193Z,37.23
2023-12-30T00:20:20.643Z,36.50
2023-12-30T00:22:48.895Z,37.63
2023-12-30T00:25:17.666Z,38.63
2023-12-30T00:27:45.815Z,38.07
2023-12-30T00:30:14.991Z,37.17
2023-12-30T00:32:43.080Z,36.87
2023-12-30T00:35:11.490Z,37.50
2023-12-30T00:37:40.772Z,35.13
2023-12-30T00:40:09.733Z,37.60
2023-12-30T00:42:37.888Z,33.83
2023-12-30T00:45:07.927Z,34.07
2023-12-30T00:47:35.844Z,32.97
2023-12-30T00:50:03.917Z,33.93
2023-12-30T00:52:31.950Z,32.90
2023-12-30T00:55:01.366Z,34.27
2023-12-30T00:57:29.378Z,32.43
2023-12-30T00:59:57.422Z,33.77
2023-12-30T01:02:25.541Z,33.87
2023-12-30T01:04:53.857Z,34.10
2023-12-30T01:07:21.895Z,33.03
2023-12-30T01:09:49.820Z,33.10
2023-12-30T01:12:19.274Z,34.30
2023-12-30T01:14:47.346Z,35.87
2023-12-30T01:17:15.324Z,34.73
2023-12-30T01:19:43.558Z,35.67
2023-12-30T01:22:12.268Z,35.70
2023-12-30T01:24:40.257Z,34.90
2023-12-30T01:27:08.253Z,32.97
2023-12-30T01:29:37.553Z,34.43
2023-12-30T01:32:06.044Z,31.30
2023-12-30T01:34:34.100Z,32.57
2023-12-30T01:37:02.666Z,33.03
2023-12-30T01:39:30.649Z,28.47
2023-12-30T01:41:58.584Z,29.40
2023-12-30T01:44:26.629Z,29.87
2023-12-30T01:46:56.398Z,29.80
2023-12-30T01:49:24.205Z,30.07
2023-12-30T01:51:54.430Z,29.80
2023-12-30T01:54:23.437Z,28.00
2023-12-30T01:56:51.700Z,29.87
2023-12-30T01:59:20.951Z,29.03
2023-12-30T02:01:49.348Z,31.47
2023-12-30T02:04:19.210Z,30.23
2023-12-30T02:06:47.321Z,27.97
2023-12-30T02:09:15.572Z,28.73
2023-12-30T02:11:43.857Z,28.50
2023-12-30T02:14:24.695Z,29.83
2023-12-30T02:16:52.811Z,29.43
2023-12-30T02:19:22.397Z,30.20
2023-12-30T02:21:51.167Z,29.80
2023-12-30T02:24:21.036Z,29.00
2023-12-30T02:26:49.218Z,29.90
2023-12-30T02:29:17.275Z,29.13
2023-12-30T02:31:48.412Z,31.50
2023-12-30T02:34:17.357Z,30.60
2023-12-30T02:36:46.275Z,29.90
2023-12-30T02:39:14.576Z,31.90
2023-12-30T02:41:44.215Z,30.97
2023-12-30T02:44:12.331Z,31.80
2023-12-30T02:47:04.096Z,31.53
2023-12-30T02:49:41.086Z,31.30
2023-12-30T02:52:15.198Z,30.47
2023-12-30T02:54:43.165Z,30.97
2023-12-30T02:57:12.446Z,31.63
2023-12-30T02:59:40.339Z,30.47
2023-12-30T03:02:08.996Z,30.13
2023-12-30T03:04:37.078Z,28.53
2023-12-30T03:07:05.314Z,29.07
2023-12-30T03:09:33.242Z,30.40
2023-12-30T03:12:03.210Z,30.90
2023-12-30T03:14:32.624Z,30.97
2023-12-30T03:17:00.558Z,30.57
2023-12-30T03:19:28.597Z,28.83
2023-12-30T03:21:56.590Z,28.23
2023-12-30T03:24:24.535Z,28.47
2023-12-30T03:26:52.468Z,27.83
2023-12-30T03:29:21.082Z,28.70
2023-12-30T03:31:50.432Z,29.40
2023-12-30T03:34:18.497Z,27.37
2023-12-30T03:36:46.498Z,27.50
2023-12-30T03:39:15.210Z,28.07
2023-12-30T03:41:43.162Z,27.63
2023-12-30T03:44:12.102Z,27.23
2023-12-30T03:46:42.065Z,26.77
2023-12-30T03:49:11.449Z,27.50
2023-12-30T03:51:39.593Z,26.63
2023-12-30T03:54:07.541Z,27.10
2023-12-30T03:56:40.187Z,30.50
2023-12-30T03:59:08.150Z,28.40
2023-12-30T04:01:36.687Z,29.63
2023-12-30T04:04:05.229Z,28.53
2023-12-30T04:06:34.590Z,24.27
2023-12-30T04:09:02.572Z,29.40
2023-12-30T04:11:30.624Z,28.17
2023-12-30T04:13:58.757Z,28.90
2023-12-30T04:16:26.792Z,29.97
2023-12-30T04:18:55.026Z,29.93
2023-12-30T04:21:25.457Z,30.67
2023-12-30T04:23:54.736Z,29.60
2023-12-30T04:26:22.660Z,28.70
2023-12-30T04:28:50.752Z,27.47
2023-12-30T04:31:18.775Z,27.97
2023-12-30T04:33:46.901Z,29.67
2023-12-30T04:36:14.963Z,29.80
2023-12-30T04:38:44.938Z,29.30
2023-12-30T04:41:15.767Z,27.20
2023-12-30T04:43:43.747Z,28.40
2023-12-30T04:46:13.446Z,27.83
2023-12-30T04:48:41.641Z,30.00
2023-12-30T04:51:10.060Z,27.80
2023-12-30T04:53:38.088Z,27.63
2023-12-30T04:56:08.082Z,28.53
2023-12-30T04:58:37.398Z,28.17
2023-12-30T05:01:05.879Z,26.17
2023-12-30T05:03:33.991Z,26.87
2023-12-30T05:06:01.973Z,24.67
2023-12-30T05:08:30.216Z,23.93
2023-12-30T05:10:58.164Z,23.70
2023-12-30T05:13:26.236Z,26.20
2023-12-30T05:15:55.651Z,24.20
2023-12-30T05:18:23.650Z,26.63
2023-12-30T05:20:51.620Z,26.30
2023-12-30T05:23:19.515Z,24.83
2023-12-30T05:25:47.437Z,25.53
2023-12-30T05:28:15.651Z,26.60
2023-12-30T05:30:43.636Z,25.23
2023-12-30T05:33:13.223Z,27.40
2023-12-30T05:35:41.768Z,25.97
2023-12-30T05:38:13.477Z,24.93
2023-12-30T05:40:41.777Z,27.30
2023-12-30T05:43:09.712Z,25.70
2023-12-30T05:45:37.712Z,29.47
2023-12-30T05:48:06.336Z,28.47
2023-12-30T05:50:35.650Z,30.97
2023-12-30T05:53:04.102Z,29.30
2023-12-30T05:55:32.280Z,29.10
2023-12-30T05:58:00.275Z,28.27
2023-12-30T06:00:28.171Z,28.67
2023-12-30T06:02:56.093Z,28.03
2023-12-30T06:05:24.016Z,27.40
2023-12-30T06:07:53.362Z,27.83
2023-12-30T06:10:21.953Z,27.10
2023-12-30T06:12:49.848Z,28.20
2023-12-30T06:15:17.735Z,26.80
2023-12-30T06:17:45.726Z,27.27
2023-12-30T06:20:13.750Z,25.10
2023-12-30T06:22:41.675Z,27.77
2023-12-30T06:25:11.216Z,25.97
2023-12-30T06:27:39.138Z,26.80
2023-12-30T06:30:08.987Z,24.70
2023-12-30T06:32:37.050Z,24.80
2023-12-30T06:35:05.422Z,26.10
2023-12-30T06:37:33.400Z,25.10
2023-12-30T06:40:01.344Z,25.90
2023-12-30T06:42:30.707Z,24.90
2023-12-30T06:44:58.792Z,24.47
2023-12-30T06:47:26.814Z,24.23
2023-12-30T06:49:54.797Z,26.10
2023-12-30T06:52:24.655Z,26.53
2023-12-30T06:55:02.625Z,25.70
2023-12-30T06:57:39.985Z,25.17
2023-12-30T07:00:09.214Z,25.40
2023-12-30T07:02:37.179Z,23.40
2023-12-30T07:05:05.763Z,25.13
2023-12-30T07:07:33.909Z,25.80
2023-12-30T07:10:01.854Z,25.77
2023-12-30T07:12:29.858Z,24.43
2023-12-30T07:14:59.671Z,24.10
2023-12-30T07:17:28.186Z,26.27
2023-12-30T07:19:56.958Z,26.40
2023-12-30T07:22:25.873Z,26.30
2023-12-30T07:24:53.939Z,26.80
2023-12-30T07:27:21.848Z,27.73
2023-12-30T07:29:49.773Z,25.90
2023-12-30T07:32:19.144Z,26.47
2023-12-30T07:34:47.212Z,24.07
2023-12-30T07:37:15.247Z,25.10
2023-12-30T07:39:43.553Z,25.17
2023-12-30T07:42:11.440Z,26.03
2023-12-30T07:44:39.697Z,27.10
2023-12-30T07:47:08.254Z,28.10
2023-12-30T07:49:38.066Z,26.70
2023-12-30T07:52:06.731Z,27.80
2023-12-30T07:54:34.735Z,28.83
2023-12-30T07:57:02.731Z,29.07
2023-12-30T07:59:30.599Z,31.27
2023-12-30T08:01:58.629Z,31.10
2023-12-30T08:04:26.825Z,29.37
2023-12-30T08:06:56.143Z,29.50
2023-12-30T08:09:24.558Z,29.37
2023-12-30T08:11:59.532Z,30.70
2023-12-30T08:14:30.959Z,29.30
2023-12-30T08:16:59.924Z,30.47
2023-12-30T08:19:28.043Z,27.83
2023-12-30T08:21:58.315Z,29.13
2023-12-30T08:24:29.350Z,27.60
2023-12-30T08:27:00.472Z,26.70
2023-12-30T08:29:28.371Z,28.87
2023-12-30T08:31:56.375Z,28.57
2023-12-30T08:34:29.107Z,29.67
2023-12-30T08:36:58.588Z,29.20
2023-12-30T08:39:26.578Z,27.27
2023-12-30T08:41:54.527Z,28.80
2023-12-30T08:44:22.433Z,29.33
2023-12-30T08:46:50.441Z,29.30
2023-12-30T08:49:18.612Z,29.77
2023-12-30T08:51:46.669Z,29.93
2023-12-30T08:54:15.923Z,30.90
2023-12-30T08:56:43.901Z,30.27
2023-12-30T08:59:11.829Z,29.80
2023-12-30T09:01:40.043Z,29.60
2023-12-30T09:04:08.282Z,32.13
2023-12-30T09:06:36.350Z,33.37
2023-12-30T09:09:05.540Z,34.93
2023-12-30T09:11:38.816Z,34.90
2023-12-30T09:14:07.473Z,34.60
2023-12-30T09:16:36.294Z,35.83
2023-12-30T09:19:05.173Z,33.97
2023-12-30T09:21:33.274Z,32.40
2023-12-30T09:24:01.278Z,33.17
2023-12-30T09:26:29.424Z,33.13
2023-12-30T09:28:58.755Z,31.37
2023-12-30T09:31:28.142Z,33.20
2023-12-30T09:33:55.170Z,31.67
2023-12-30T09:36:23.120Z,33.30
2023-12-30T09:38:51.094Z,32.17
2023-12-30T09:41:22.537Z,30.93
2023-12-30T09:43:51.895Z,31.27
2023-12-30T09:46:23.080Z,30.80
2023-12-30T09:48:52.244Z,31.00
2023-12-30T09:51:20.310Z,30.27
2023-12-30T09:53:48.312Z,30.73
2023-12-30T09:56:17.452Z,32.40
2023-12-30T09:58:46.290Z,30.43
2023-12-30T10:01:14.565Z,29.40
2023-12-30T10:03:45.144Z,30.87
2023-12-30T10:06:15.410Z,29.90
2023-12-30T10:08:44.079Z,32.87
2023-12-30T10:11:12.921Z,35.90
2023-12-30T10:13:41.081Z,30.73
2023-12-30T10:16:09.812Z,31.80
2023-12-30T10:18:38.901Z,32.57
2023-12-30T10:21:09.413Z,32.73
2023-12-30T10:23:39.086Z,30.73
2023-12-30T10:26:06.976Z,32.70
2023-12-30T10:28:35.139Z,40.40
2023-12-30T10:31:04.090Z,33.50
2023-12-30T10:33:33.955Z,33.07
2023-12-30T10:36:02.049Z,31.40
2023-12-30T10:38:31.549Z,32.80
2023-12-30T10:40:59.736Z,32.10
2023-12-30T10:43:27.597Z,32.10
2023-12-30T10:45:59.231Z,32.40
2023-12-30T10:48:32.856Z,47.70
2023-12-30T10:51:02.195Z,36.60
2023-12-30T10:53:33.975Z,32.90
2023-12-30T10:56:02.964Z,30.70
2023-12-30T10:58:34.481Z,30.20
2023-12-30T11:01:04.762Z,30.00
2023-12-30T11:03:34.075Z,30.07
2023-12-30T11:06:08.583Z,30.40
2023-12-30T11:08:42.961Z,30.73
2023-12-30T11:11:13.815Z,30.60
2023-12-30T11:13:44.016Z,28.93
2023-12-30T11:16:16.505Z,29.60
2023-12-30T11:18:50.882Z,28.50
2023-12-30T11:21:35.164Z,28.40
2023-12-30T11:24:07.187Z,27.37
2023-12-30T11:26:36.568Z,27.20
2023-12-30T11:29:05.458Z,26.50
2023-12-30T11:31:34.436Z,26.07
2023-12-30T11:34:02.933Z,27.00
2023-12-30T11:36:31.238Z,28.77
2023-12-30T11:39:00.740Z,26.70
2023-12-30T11:41:31.958Z,25.93
2023-12-30T11:44:03.385Z,27.83
2023-12-30T11:46:32.633Z,27.77
2023-12-30T11:49:01.826Z,26.57
2023-12-30T11:51:31.389Z,26.37
2023-12-30T11:54:02.696Z,27.60
2023-12-30T11:56:32.280Z,26.50
2023-12-30T11:59:01.219Z,26.53
2023-12-30T12:01:29.395Z,27.10
2023-12-30T12:03:57.661Z,27.53
2023-12-30T12:06:25.967Z,26.87
2023-12-30T12:08:53.953Z,27.33
2023-12-30T12:11:21.896Z,26.40
2023-12-30T12:13:57.878Z,28.20
2023-12-30T12:16:27.076Z,26.57
2023-12-30T12:18:55.530Z,26.27
2023-12-30T12:21:23.609Z,26.80
2023-12-30T12:23:51.640Z,24.73
2023-12-30T12:26:19.636Z,25.83
2023-12-30T12:28:47.560Z,24.20
2023-12-30T12:31:20.596Z,25.57
2023-12-30T12:33:48.652Z,25.03
2023-12-30T12:36:18.877Z,22.47
2023-12-30T12:38:47.171Z,24.17
2023-12-30T12:41:15.085Z,26.33
2023-12-30T12:43:43.376Z,26.00
2023-12-30T12:46:12.329Z,27.03
2023-12-30T12:48:41.808Z,34.27
2023-12-30T12:51:09.743Z,26.03
2023-12-30T12:53:38.286Z,26.77
2023-12-30T12:56:06.308Z,26.63
2023-12-30T12:58:34.315Z,25.37
2023-12-30T13:01:04.613Z,26.73
2023-12-30T13:03:32.750Z,24.53
2023-12-30T13:06:13.880Z,27.23
2023-12-30T13:08:42.650Z,25.47
2023-12-30T13:11:10.568Z,26.20
2023-12-30T13:13:38.570Z,26.97
2023-12-30T13:16:07.727Z,24.17
2023-12-30T13:18:35.812Z,25.00
2023-12-30T13:21:07.452Z,26.33
2023-12-30T13:23:35.403Z,27.37
2023-12-30T13:26:05.137Z,26.63
2023-12-30T13:28:33.340Z,27.90
2023-12-30T13:31:01.353Z,26.27
2023-12-30T13:33:29.531Z,26.30
2023-12-30T13:35:57.407Z,25.93
2023-12-30T13:38:28.911Z,26.50
2023-12-30T13:41:01.288Z,26.57
2023-12-30T13:43:29.442Z,29.47
2023-12-30T13:46:12.684Z,28.07
2023-12-30T13:48:54.660Z,26.80
2023-12-30T13:51:22.600Z,24.93
2023-12-30T13:53:53.861Z,24.33
2023-12-30T13:56:26.163Z,26.07
2023-12-30T13:58:58.038Z,24.73
2023-12-30T14:01:26.888Z,25.53
2023-12-30T14:03:57.083Z,24.30
2023-12-30T14:06:33.346Z,24.63
2023-12-30T14:09:19.222Z,25.37
2023-12-30T14:11:50.729Z,24.57
2023-12-30T14:14:18.812Z,24.20
2023-12-30T14:16:46.980Z,25.97
2023-12-30T14:19:17.160Z,25.00
2023-12-30T14:21:45.273Z,26.37
2023-12-30T14:24:17.174Z,27.30
2023-12-30T14:26:45.185Z,25.37
2023-12-30T14:29:13.119Z,23.87
2023-12-30T14:31:41.192Z,25.70
2023-12-30T14:34:10.736Z,25.80
2023-12-30T14:36:39.206Z,28.03
2023-12-30T14:39:10.098Z,28.10
2023-12-30T14:41:41.112Z,30.23
2023-12-30T14:44:09.279Z,27.17
2023-12-30T14:46:37.420Z,25.53
2023-12-30T14:49:05.406Z,23.57
2023-12-30T14:51:33.700Z,22.67
2023-12-30T14:54:01.569Z,26.17
2023-12-30T14:56:29.528Z,25.50
2023-12-30T14:58:59.165Z,27.43
2023-12-30T15:01:27.262Z,28.60
2023-12-30T15:03:59.581Z,27.60
2023-12-30T15:06:30.028Z,28.73
2023-12-30T15:08:59.755Z,28.90
2023-12-30T15:11:28.606Z,25.43
2023-12-30T15:13:58.551Z,27.17
2023-12-30T15:16:26.484Z,24.77
2023-12-30T15:18:54.457Z,26.37
2023-12-30T15:21:22.779Z,25.20
2023-12-30T15:23:50.920Z,27.87
2023-12-30T15:26:18.915Z,27.90
2023-12-30T15:28:46.839Z,29.10
2023-12-30T15:31:16.584Z,29.43
2023-12-30T15:33:44.678Z,31.17
2023-12-30T15:36:12.913Z,30.90
2023-12-30T15:38:40.955Z,29.87
2023-12-30T15:41:08.883Z,31.83
2023-12-30T15:43:37.344Z,31.67
2023-12-30T15:46:08.576Z,29.30
2023-12-30T15:48:39.674Z,29.97
2023-12-30T15:51:08.285Z,28.33
2023-12-30T15:53:36.551Z,28.70
2023-12-30T15:56:04.893Z,28.87
2023-12-30T15:58:32.956Z,27.30
2023-12-30T16:01:00.952Z,26.03
2023-12-30T16:03:28.945Z,29.00
2023-12-30T16:05:58.479Z,26.33
2023-12-30T16:08:27.365Z,26.70
2023-12-30T16:10:56.525Z,26.63
2023-12-30T16:13:24.486Z,31.40
2023-12-30T16:15:54.007Z,25.77
2023-12-30T16:18:22.139Z,29.07
2023-12-30T16:20:50.083Z,29.10
2023-12-30T16:23:19.487Z,27.20
2023-12-30T16:25:48.505Z,27.23
2023-12-30T16:28:17.324Z,27.83
2023-12-30T16:30:45.421Z,28.93
2023-12-30T16:33:13.548Z,28.20
2023-12-30T16:35:41.700Z,25.60
2023-12-30T16:38:09.657Z,30.00
2023-12-30T16:40:39.866Z,30.40
2023-12-30T16:43:08.235Z,28.60
2023-12-30T16:45:36.857Z,40.50
2023-12-30T16:48:05.486Z,36.73
2023-12-30T16:50:33.528Z,39.63
2023-12-30T16:53:05.221Z,31.87
2023-12-30T16:55:33.664Z,31.60
2023-12-30T16:58:03.225Z,32.43
2023-12-30T17:00:31.370Z,32.17
2023-12-30T17:02:59.506Z,29.63
2023-12-30T17:05:27.720Z,38.80
2023-12-30T17:07:55.616Z,32.63
2023-12-30T17:10:23.591Z,33.63
2023-12-30T17:12:51.581Z,36.67
2023-12-30T17:15:20.914Z,36.60
2023-12-30T17:17:48.959Z,37.83
2023-12-30T17:20:17.040Z,35.93
2023-12-30T17:22:45.013Z,37.00
2023-12-30T17:25:14.856Z,38.17
2023-12-30T17:27:42.891Z,37.17
2023-12-30T17:30:11.352Z,38.83
2023-12-30T17:32:40.690Z,37.50
2023-12-30T17:35:09.778Z,36.80
2023-12-30T17:37:38.244Z,38.07
2023-12-30T17:40:06.969Z,38.30
2023-12-30T17:42:36.073Z,37.10
2023-12-30T17:45:04.462Z,42.10
2023-12-30T17:47:34.674Z,43.07
2023-12-30T17:50:08.192Z,50.47
2023-12-30T17:52:36.583Z,45.00
2023-12-30T17:55:05.897Z,44.40
2023-12-30T17:57:34.032Z,44.53
2023-12-30T18:00:02.025Z,41.20
2023-12-30T18:02:33.456Z,42.90
2023-12-30T18:05:01.751Z,47.47
2023-12-30T18:07:31.237Z,42.27
2023-12-30T18:09:59.221Z,41.87
2023-12-30T18:12:29.084Z,45.20
2023-12-30T18:14:56.973Z,45.87
2023-12-30T18:17:24.883Z,47.40
2023-12-30T18:19:52.894Z,47.50
2023-12-30T18:22:20.914Z,51.13
2023-12-30T18:24:50.294Z,48.60
2023-12-30T18:27:18.321Z,51.40
2023-12-30T18:29:46.778Z,47.87
2023-12-30T18:32:14.651Z,49.80
2023-12-30T18:34:42.705Z,44.20
2023-12-30T18:37:15.892Z,52.73
2023-12-30T18:39:44.028Z,45.53
2023-12-30T18:42:13.321Z,45.27
2023-12-30T18:44:41.274Z,44.53
2023-12-30T18:47:09.150Z,44.43
2023-12-30T18:49:37.171Z,42.73
2023-12-30T18:52:05.577Z,44.63
2023-12-30T18:54:33.550Z,42.70
2023-12-30T18:57:01.453Z,51.60
2023-12-30T18:59:30.740Z,44.73
2023-12-30T19:02:01.344Z,46.83
2023-12-30T19:04:31.991Z,49.33
2023-12-30T19:07:00.823Z,44.97
2023-12-30T19:09:28.719Z,61.87
2023-12-30T19:11:56.960Z,51.40
2023-12-30T19:14:24.868Z,50.17
2023-12-30T19:16:54.237Z,49.73
2023-12-30T19:19:22.214Z,36.50
2023-12-30T19:21:50.174Z,45.57
2023-12-30T19:24:18.303Z,44.97
2023-12-30T19:26:46.604Z,44.80
2023-12-30T19:29:14.622Z,45.37
2023-12-30T19:31:43.091Z,58.30
2023-12-30T19:34:12.420Z,54.13
2023-12-30T19:36:40.855Z,50.10
2023-12-30T19:39:09.498Z,48.07
2023-12-30T19:41:38.366Z,55.33
2023-12-30T19:44:07.425Z,52.80
2023-12-30T19:46:35.807Z,60.20
2023-12-30T19:49:05.659Z,44.83
2023-12-30T19:51:35.283Z,48.90
2023-12-30T19:54:03.881Z,46.60
2023-12-30T19:56:31.940Z,53.67
2023-12-30T19:58:59.866Z,61.03
2023-12-30T20:01:27.924Z,54.43
2023-12-30T20:03:55.982Z,52.00
2023-12-30T20:06:23.959Z,52.30
2023-12-30T20:08:53.256Z,54.87
2023-12-30T20:11:22.388Z,61.20
2023-12-30T20:13:51.133Z,61.83
2023-12-30T20:16:19.140Z,58.17
2023-12-30T20:18:47.220Z,53.43
2023-12-30T20:21:15.889Z,81.23
2023-12-30T20:23:43.828Z,57.67
2023-12-30T20:26:13.093Z,64.10
2023-12-30T20:28:41.143Z,63.30
2023-12-30T20:31:09.495Z,53.83
2023-12-30T20:33:38.083Z,55.90
2023-12-30T20:36:07.045Z,50.73
2023-12-30T20:38:35.741Z,52.07
2023-12-30T20:41:03.834Z,51.73
2023-12-30T20:43:33.227Z,57.70
2023-12-30T20:46:01.424Z,59.07
2023-12-30T20:48:29.602Z,49.20
2023-12-30T20:50:57.619Z,58.37
2023-12-30T20:53:25.594Z,54.07
2023-12-30T20:55:53.508Z,52.77
2023-12-30T20:58:21.532Z,55.60
2023-12-30T21:00:50.830Z,55.37
2023-12-30T21:03:18.789Z,46.03
2023-12-30T21:05:46.801Z,37.13
2023-12-30T21:08:14.742Z,34.00
2023-12-30T21:10:42.939Z,32.73
2023-12-30T21:13:10.979Z,32.27
2023-12-30T21:15:39.076Z,31.90
2023-12-30T21:18:10.846Z,33.40
2023-12-30T21:20:38.942Z,34.73
2023-12-30T21:23:07.217Z,36.63
2023-12-30T21:25:35.239Z,38.90
2023-12-30T21:28:05.892Z,50.40
2023-12-30T21:30:34.164Z,37.60
2023-12-30T21:33:02.448Z,36.80
2023-12-30T21:35:32.564Z,36.03
2023-12-30T21:38:00.548Z,34.53
2023-12-30T21:40:29.442Z,32.97
2023-12-30T21:42:57.433Z,36.70
2023-12-30T21:45:25.320Z,38.80
2023-12-30T21:47:53.382Z,36.60
2023-12-30T21:50:21.468Z,31.23
2023-12-30T21:52:52.937Z,32.20
2023-12-30T21:55:21.280Z,33.00
2023-12-30T21:57:49.873Z,34.00
2023-12-30T22:00:18.225Z,37.90
2023-12-30T22:02:47.496Z,38.73
2023-12-30T22:05:18.650Z,52.23
2023-12-30T22:07:46.646Z,47.30
2023-12-30T22:10:16.724Z,47.40
2023-12-30T22:12:43.716Z,50.93
2023-12-30T22:15:11.569Z,51.73
2023-12-30T22:17:39.784Z,44.80
2023-12-30T22:20:09.576Z,38.63
2023-12-30T22:22:38.014Z,36.30
2023-12-30T22:25:06.419Z,36.47
2023-12-30T22:27:36.527Z,41.30
2023-12-30T22:30:04.866Z,40.67
2023-12-30T22:32:32.994Z,39.73
2023-12-30T22:35:05.155Z,37.60
2023-12-30T22:37:33.709Z,37.80
2023-12-30T22:40:01.583Z,38.60
2023-12-30T22:42:29.466Z,38.90
2023-12-30T22:44:58.777Z,39.10
2023-12-30T22:47:26.777Z,35.77
2023-12-30T22:49:54.708Z,38.73
2023-12-30T22:52:22.671Z,38.10
2023-12-30T22:54:50.568Z,38.10
2023-12-30T22:57:18.512Z,36.63
2023-12-30T22:59:46.381Z,36.43
2023-12-30T23:02:15.660Z,33.53
2023-12-30T23:04:43.706Z,34.77
2023-12-30T23:07:11.961Z,34.90
2023-12-30T23:09:40.064Z,34.70
2023-12-30T23:12:08.286Z,35.23
2023-12-30T23:14:36.193Z,33.93
2023-12-30T23:17:04.350Z,35.10
2023-12-30T23:19:33.913Z,33.37
2023-12-30T23:22:01.954Z,34.47
2023-12-30T23:24:29.925Z,34.37
2023-12-30T23:26:57.932Z,34.27
2023-12-30T23:29:27.006Z,32.80
2023-12-30T23:31:55.639Z,33.27
2023-12-30T23:34:24.951Z,32.37
2023-12-30T23:36:57.528Z,34.90
2023-12-30T23:39:26.175Z,34.97
2023-12-30T23:41:54.112Z,33.53
2023-12-30T23:44:22.019Z,32.03
2023-12-30T23:46:50.002Z,33.43
2023-12-30T23:49:18.513Z,32.37
2023-12-30T23:51:46.573Z,36.80
2023-12-30T23:54:15.905Z,33.43
2023-12-30T23:56:44.313Z,33.80
2023-12-30T23:59:14.087Z,33.90
